createdAt,value
2022-10-25T00:00:15.992Z,966.79
2022-10-25T00:01:16.056Z,966.84
2022-10-25T00:02:16.161Z,966.86
2022-10-25T00:03:15.964Z,966.84
2022-10-25T00:04:15.950Z,966.84
2022-10-25T00:05:15.922Z,966.82
2022-10-25T00:06:15.903Z,966.78
2022-10-25T00:07:15.865Z,966.86
2022-10-25T00:08:15.881Z,966.80
2022-10-25T00:09:15.841Z,966.79
2022-10-25T00:10:15.799Z,966.74
2022-10-25T00:11:15.784Z,966.84
2022-10-25T00:12:15.852Z,966.81
2022-10-25T00:13:15.771Z,966.84
2022-10-25T00:14:15.737Z,966.85
2022-10-25T00:15:15.705Z,966.88
2022-10-25T00:16:15.680Z,966.80
2022-10-25T00:17:15.673Z,966.91
2022-10-25T00:18:15.677Z,966.88
2022-10-25T00:19:15.631Z,966.84
2022-10-25T00:20:15.628Z,966.93
2022-10-25T00:21:15.606Z,966.88
2022-10-25T00:22:15.598Z,966.91
2022-10-25T00:23:15.582Z,966.92
2022-10-25T00:24:15.549Z,966.94
2022-10-25T00:25:15.546Z,966.92
2022-10-25T00:26:15.511Z,966.93
2022-10-25T00:27:15.491Z,966.92
2022-10-25T00:28:15.536Z,966.92
2022-10-25T00:29:15.481Z,966.90
2022-10-25T00:30:15.442Z,966.92
2022-10-25T00:31:15.414Z,966.91
2022-10-25T00:32:15.996Z,966.88
2022-10-25T00:33:15.405Z,966.87
2022-10-25T00:34:15.366Z,966.87
2022-10-25T00:35:15.400Z,966.87
2022-10-25T00:36:15.505Z,966.88
2022-10-25T00:37:15.308Z,966.91
2022-10-25T00:38:15.330Z,966.89
2022-10-25T00:39:15.272Z,966.90
2022-10-25T00:40:15.252Z,966.91
2022-10-25T00:41:15.222Z,966.91
2022-10-25T00:42:15.222Z,966.85
2022-10-25T00:43:15.242Z,966.96
2022-10-25T00:44:15.173Z,966.92
2022-10-25T00:45:15.162Z,966.92
2022-10-25T00:46:15.143Z,966.99
2022-10-25T00:47:15.106Z,966.94
2022-10-25T00:48:15.139Z,966.90
2022-10-25T00:49:15.071Z,966.87
2022-10-25T00:50:15.051Z,966.89
2022-10-25T00:51:15.052Z,966.85
2022-10-25T00:52:15.025Z,966.88
2022-10-25T00:53:15.053Z,966.91
2022-10-25T00:54:15.024Z,966.86
2022-10-25T00:55:14.959Z,966.92
2022-10-25T00:56:14.964Z,966.90
2022-10-25T00:57:14.934Z,966.95
2022-10-25T00:58:14.937Z,966.95
2022-10-25T00:59:14.922Z,967.00
2022-10-25T01:00:14.863Z,967.01
2022-10-25T01:01:14.959Z,967.08
2022-10-25T01:02:14.995Z,967.06
2022-10-25T01:03:14.866Z,967.08
2022-10-25T01:04:14.796Z,967.09
2022-10-25T01:05:14.775Z,967.13
2022-10-25T01:06:14.766Z,967.09
2022-10-25T01:07:14.751Z,967.10
2022-10-25T01:08:14.777Z,967.04
2022-10-25T01:09:14.717Z,967.01
2022-10-25T01:10:14.741Z,967.01
2022-10-25T01:11:14.713Z,966.99
2022-10-25T01:12:14.639Z,966.99
2022-10-25T01:13:14.646Z,967.06
2022-10-25T01:14:14.610Z,967.11
2022-10-25T01:15:14.576Z,967.03
2022-10-25T01:16:14.563Z,967.02
2022-10-25T01:17:14.555Z,966.93
2022-10-25T01:18:14.552Z,966.98
2022-10-25T01:19:14.514Z,966.98
2022-10-25T01:20:14.495Z,966.99
2022-10-25T01:21:14.475Z,966.95
2022-10-25T01:22:14.460Z,966.94
2022-10-25T01:23:14.471Z,966.97
2022-10-25T01:24:14.415Z,966.92
2022-10-25T01:25:14.417Z,966.91
2022-10-25T01:26:14.383Z,966.88
2022-10-25T01:27:14.382Z,966.87
2022-10-25T01:28:14.366Z,966.95
2022-10-25T01:29:14.321Z,966.90
2022-10-25T01:30:14.318Z,966.85
2022-10-25T01:31:14.298Z,966.88
2022-10-25T01:32:14.270Z,966.85
2022-10-25T01:33:14.299Z,966.92
2022-10-25T01:34:14.230Z,966.91
2022-10-25T01:35:14.218Z,966.92
2022-10-25T01:37:15.180Z,966.93
2022-10-25T01:38:14.225Z,966.99
2022-10-25T01:39:14.161Z,966.90
2022-10-25T01:40:14.129Z,966.99
2022-10-25T01:41:15.101Z,966.93
2022-10-25T01:42:14.116Z,966.94
2022-10-25T01:43:14.109Z,966.93
2022-10-25T01:44:14.082Z,966.95
2022-10-25T01:45:14.036Z,966.85
2022-10-25T01:46:14.013Z,966.92
2022-10-25T01:47:13.995Z,966.91
2022-10-25T01:48:38.024Z,966.91
2022-10-25T01:49:14.009Z,966.98
2022-10-25T01:50:13.950Z,966.97
2022-10-25T01:51:13.925Z,966.96
2022-10-25T01:52:13.946Z,966.98
2022-10-25T01:53:13.905Z,966.97
2022-10-25T01:54:13.930Z,966.98
2022-10-25T01:55:13.906Z,966.99
2022-10-25T01:56:13.837Z,967.00
2022-10-25T01:57:13.819Z,967.00
2022-10-25T01:58:13.844Z,967.03
2022-10-25T01:59:13.826Z,967.00
2022-10-25T02:00:13.786Z,967.01
2022-10-25T02:01:13.990Z,966.98
2022-10-25T02:02:13.735Z,967.07
2022-10-25T02:03:13.704Z,967.12
2022-10-25T02:04:13.721Z,967.07
2022-10-25T02:05:13.662Z,967.07
2022-10-25T02:06:13.646Z,967.04
2022-10-25T02:07:13.630Z,967.07
2022-10-25T02:08:13.608Z,967.08
2022-10-25T02:09:13.615Z,967.09
2022-10-25T02:10:13.572Z,967.06
2022-10-25T02:11:13.551Z,967.05
2022-10-25T02:12:13.535Z,967.10
2022-10-25T02:13:13.515Z,967.08
2022-10-25T02:14:13.531Z,967.04
2022-10-25T02:15:13.509Z,967.10
2022-10-25T02:16:13.471Z,967.09
2022-10-25T02:17:13.446Z,967.07
2022-10-25T02:18:13.422Z,967.12
2022-10-25T02:19:13.434Z,967.13
2022-10-25T02:20:13.380Z,967.15
2022-10-25T02:21:13.372Z,967.13
2022-10-25T02:22:13.413Z,967.08
2022-10-25T02:23:13.339Z,967.16
2022-10-25T02:24:13.341Z,967.12
2022-10-25T02:25:13.367Z,967.18
2022-10-25T02:26:13.290Z,967.14
2022-10-25T02:27:13.245Z,967.16
2022-10-25T02:28:13.271Z,967.08
2022-10-25T02:29:13.250Z,967.11
2022-10-25T02:30:13.214Z,967.08
2022-10-25T02:31:13.185Z,967.03
2022-10-25T02:32:13.160Z,967.08
2022-10-25T02:33:13.146Z,967.04
2022-10-25T02:34:13.152Z,967.09
2022-10-25T02:36:13.087Z,967.05
2022-10-25T02:37:13.095Z,967.01
2022-10-25T02:38:13.044Z,967.07
2022-10-25T02:39:13.046Z,967.05
2022-10-25T02:40:13.000Z,966.95
2022-10-25T02:41:12.993Z,966.94
2022-10-25T02:42:12.960Z,966.96
2022-10-25T02:43:12.944Z,966.98
2022-10-25T02:44:12.988Z,967.05
2022-10-25T02:45:12.906Z,967.03
2022-10-25T02:46:12.890Z,967.02
2022-10-25T02:47:12.884Z,966.99
2022-10-25T02:48:12.860Z,967.10
2022-10-25T02:49:12.853Z,967.02
2022-10-25T02:50:12.829Z,967.07
2022-10-25T02:51:12.795Z,967.11
2022-10-25T02:52:12.770Z,967.07
2022-10-25T02:53:12.746Z,967.10
2022-10-25T02:54:12.791Z,967.15
2022-10-25T02:55:12.719Z,967.26
2022-10-25T02:56:12.714Z,967.19
2022-10-25T02:57:12.686Z,967.18
2022-10-25T02:58:12.674Z,967.14
2022-10-25T02:59:12.683Z,967.10
2022-10-25T03:01:12.690Z,967.17
2022-10-25T03:02:12.585Z,967.11
2022-10-25T03:03:12.583Z,967.15
2022-10-25T03:04:12.617Z,967.14
2022-10-25T03:05:12.536Z,967.14
2022-10-25T03:06:12.523Z,967.20
2022-10-25T03:07:12.490Z,967.17
2022-10-25T03:08:12.478Z,967.13
2022-10-25T03:09:12.491Z,967.11
2022-10-25T03:10:12.453Z,967.18
2022-10-25T03:11:12.418Z,967.18
2022-10-25T03:12:12.410Z,967.20
2022-10-25T03:13:12.390Z,967.20
2022-10-25T03:14:12.385Z,967.17
2022-10-25T03:15:12.353Z,967.15
2022-10-25T03:16:12.331Z,967.14
2022-10-25T03:17:12.303Z,967.18
2022-10-25T03:18:12.288Z,967.23
2022-10-25T03:19:12.296Z,967.21
2022-10-25T03:21:02.137Z,967.19
2022-10-25T03:21:12.287Z,967.22
2022-10-25T03:22:12.292Z,967.20
2022-10-25T03:23:12.221Z,967.21
2022-10-25T03:24:12.239Z,967.22
2022-10-25T03:25:12.182Z,967.26
2022-10-25T03:26:12.196Z,967.17
2022-10-25T03:27:12.123Z,967.26
2022-10-25T03:28:12.115Z,967.26
2022-10-25T03:29:12.176Z,967.23
2022-10-25T03:30:12.074Z,967.23
2022-10-25T03:31:12.098Z,967.28
2022-10-25T03:32:12.032Z,967.35
2022-10-25T03:33:12.022Z,967.26
2022-10-25T03:34:12.025Z,967.29
2022-10-25T03:35:11.980Z,967.37
2022-10-25T03:36:11.983Z,967.28
2022-10-25T03:37:11.952Z,967.39
2022-10-25T03:38:11.943Z,967.37
2022-10-25T03:40:01.789Z,967.41
2022-10-25T03:40:11.941Z,967.37
2022-10-25T03:41:11.856Z,967.39
2022-10-25T03:42:11.843Z,967.39
2022-10-25T03:43:11.912Z,967.42
2022-10-25T03:44:11.847Z,967.41
2022-10-25T03:45:11.792Z,967.47
2022-10-25T03:46:11.771Z,967.38
2022-10-25T03:47:11.749Z,967.47
2022-10-25T03:48:11.726Z,967.49
2022-10-25T03:49:11.741Z,967.49
2022-10-25T03:50:11.719Z,967.46
2022-10-25T03:51:11.669Z,967.45
2022-10-25T03:52:11.652Z,967.49
2022-10-25T03:53:11.651Z,967.51
2022-10-25T03:54:11.652Z,967.54
2022-10-25T03:55:11.594Z,967.47
2022-10-25T03:56:11.580Z,967.58
2022-10-25T03:57:11.545Z,967.60
2022-10-25T03:58:12.543Z,967.63
2022-10-25T03:59:11.538Z,967.64
2022-10-25T04:00:11.489Z,967.53
2022-10-25T04:01:11.579Z,967.63
2022-10-25T04:02:11.496Z,967.61
2022-10-25T04:03:11.431Z,967.62
2022-10-25T04:04:11.433Z,967.64
2022-10-25T04:05:11.390Z,967.71
2022-10-25T04:06:11.364Z,967.65
2022-10-25T04:07:11.355Z,967.70
2022-10-25T04:08:11.323Z,967.66
2022-10-25T04:09:11.335Z,967.70
2022-10-25T04:10:11.293Z,967.68
2022-10-25T04:11:11.268Z,967.70
2022-10-25T04:12:11.242Z,967.71
2022-10-25T04:14:01.647Z,967.73
2022-10-25T04:14:11.239Z,967.72
2022-10-25T04:15:11.202Z,967.77
2022-10-25T04:16:11.874Z,967.73
2022-10-25T04:17:11.167Z,967.72
2022-10-25T04:18:11.140Z,967.76
2022-10-25T04:19:11.143Z,967.75
2022-10-25T04:20:12.108Z,967.75
2022-10-25T04:21:11.120Z,967.77
2022-10-25T04:22:11.063Z,967.72
2022-10-25T04:23:11.059Z,967.74
2022-10-25T04:24:11.072Z,967.69
2022-10-25T04:25:11.041Z,967.76
2022-10-25T04:26:10.997Z,967.73
2022-10-25T04:27:10.963Z,967.76
2022-10-25T04:28:10.938Z,967.76
2022-10-25T04:29:10.967Z,967.75
2022-10-25T04:30:10.896Z,967.78
2022-10-25T04:31:10.877Z,967.71
2022-10-25T04:32:10.895Z,967.68
2022-10-25T04:33:10.842Z,967.76
2022-10-25T04:34:53.218Z,967.75
2022-10-25T04:35:10.887Z,967.71
2022-10-25T04:36:10.830Z,967.68
2022-10-25T04:37:10.842Z,967.72
2022-10-25T04:38:10.760Z,967.72
2022-10-25T04:39:10.758Z,967.77
2022-10-25T04:40:10.742Z,967.75
2022-10-25T04:41:10.700Z,967.78
2022-10-25T04:42:10.690Z,967.78
2022-10-25T04:43:10.657Z,967.75
2022-10-25T04:44:10.680Z,967.88
2022-10-25T04:45:10.618Z,967.87
2022-10-25T04:46:10.605Z,967.93
2022-10-25T04:47:10.593Z,967.83
2022-10-25T04:48:10.558Z,967.88
2022-10-25T04:49:10.571Z,967.90
2022-10-25T04:50:10.520Z,967.88
2022-10-25T04:51:10.499Z,967.91
2022-10-25T04:52:10.472Z,967.86
2022-10-25T04:53:10.472Z,967.86
2022-10-25T04:54:10.471Z,967.84
2022-10-25T04:55:10.426Z,967.84
2022-10-25T04:56:10.410Z,967.79
2022-10-25T04:57:10.390Z,967.85
2022-10-25T04:58:10.363Z,967.87
2022-10-25T04:59:10.373Z,967.85
2022-10-25T05:00:10.346Z,967.90
2022-10-25T05:01:10.375Z,967.83
2022-10-25T05:02:10.272Z,967.87
2022-10-25T05:03:13.280Z,967.84
2022-10-25T05:04:10.259Z,967.86
2022-10-25T05:05:10.235Z,967.96
2022-10-25T05:06:10.214Z,967.87
2022-10-25T05:07:10.170Z,967.91
2022-10-25T05:08:10.163Z,967.89
2022-10-25T05:09:10.162Z,967.93
2022-10-25T05:10:10.117Z,967.90
2022-10-25T05:11:10.084Z,967.95
2022-10-25T05:12:10.071Z,967.94
2022-10-25T05:13:10.051Z,967.97
2022-10-25T05:14:10.026Z,967.90
2022-10-25T05:15:10.054Z,967.98
2022-10-25T05:16:09.993Z,968.04
2022-10-25T05:17:09.967Z,967.99
2022-10-25T05:18:09.947Z,967.99
2022-10-25T05:19:09.923Z,967.99
2022-10-25T05:20:09.933Z,968.04
2022-10-25T05:21:09.886Z,967.98
2022-10-25T05:22:09.861Z,968.04
2022-10-25T05:23:09.867Z,967.99
2022-10-25T05:24:09.874Z,967.98
2022-10-25T05:25:09.839Z,968.02
2022-10-25T05:26:09.828Z,968.02
2022-10-25T05:27:09.793Z,967.99
2022-10-25T05:28:09.746Z,968.00
2022-10-25T05:29:10.489Z,968.02
2022-10-25T05:30:10.734Z,968.02
2022-10-25T05:32:09.668Z,968.04
2022-10-25T05:33:09.652Z,968.05
2022-10-25T05:34:09.620Z,967.97
2022-10-25T05:35:09.630Z,968.05
2022-10-25T05:36:09.581Z,968.07
2022-10-25T05:37:09.547Z,968.05
2022-10-25T05:38:09.534Z,968.10
2022-10-25T05:39:09.514Z,968.14
2022-10-25T05:40:09.517Z,968.14
2022-10-25T05:41:09.478Z,968.17
2022-10-25T05:42:09.443Z,968.20
2022-10-25T05:43:09.431Z,968.17
2022-10-25T05:44:09.406Z,968.23
2022-10-25T05:45:09.408Z,968.22
2022-10-25T05:46:09.375Z,968.24
2022-10-25T05:47:09.345Z,968.24
2022-10-25T05:48:09.325Z,968.29
2022-10-25T05:49:09.303Z,968.31
2022-10-25T05:50:09.320Z,968.37
2022-10-25T05:51:28.646Z,968.40
2022-10-25T05:52:10.257Z,968.34
2022-10-25T05:53:09.236Z,968.37
2022-10-25T05:54:10.018Z,968.35
2022-10-25T05:55:09.217Z,968.27
2022-10-25T05:56:09.170Z,968.27
2022-10-25T05:57:09.254Z,968.30
2022-10-25T05:58:09.158Z,968.24
2022-10-25T05:59:09.432Z,968.29
2022-10-25T06:00:09.100Z,968.31
2022-10-25T06:01:09.211Z,968.37
2022-10-25T06:02:09.175Z,968.39
2022-10-25T06:03:09.060Z,968.44
2022-10-25T06:04:09.063Z,968.43
2022-10-25T06:05:08.984Z,968.44
2022-10-25T06:06:08.975Z,968.49
2022-10-25T06:07:08.957Z,968.46
2022-10-25T06:08:08.920Z,968.49
2022-10-25T06:09:08.942Z,968.43
2022-10-25T06:10:10.749Z,968.46
2022-10-25T06:11:09.871Z,968.51
2022-10-25T06:12:09.650Z,968.49
2022-10-25T06:13:09.833Z,968.47
2022-10-25T06:14:08.852Z,968.48
2022-10-25T06:15:08.788Z,968.58
2022-10-25T06:16:08.784Z,968.55
2022-10-25T06:17:08.745Z,968.61
2022-10-25T06:18:08.714Z,968.57
2022-10-25T06:19:08.729Z,968.63
2022-10-25T06:20:08.693Z,968.62
2022-10-25T06:21:08.662Z,968.65
2022-10-25T06:22:08.639Z,968.70
2022-10-25T06:23:11.104Z,968.68
2022-10-25T06:24:08.638Z,968.62
2022-10-25T06:25:08.572Z,968.62
2022-10-25T06:26:08.555Z,968.67
2022-10-25T06:27:08.540Z,968.70
2022-10-25T06:28:08.523Z,968.69
2022-10-25T06:29:08.594Z,968.68
2022-10-25T06:30:08.477Z,968.69
2022-10-25T06:31:08.468Z,968.74
2022-10-25T06:32:08.482Z,968.70
2022-10-25T06:33:08.532Z,968.79
2022-10-25T06:34:08.402Z,968.79
2022-10-25T06:35:08.423Z,968.77
2022-10-25T06:36:08.353Z,968.75
2022-10-25T06:37:08.317Z,968.81
2022-10-25T06:38:08.298Z,968.83
2022-10-25T06:39:08.280Z,968.83
2022-10-25T06:40:08.299Z,968.85
2022-10-25T06:41:08.241Z,968.86
2022-10-25T06:42:08.225Z,968.94
2022-10-25T06:43:08.189Z,968.86
2022-10-25T06:44:08.202Z,968.90
2022-10-25T06:45:08.150Z,968.86
2022-10-25T06:46:08.125Z,968.91
2022-10-25T06:47:23.440Z,968.96
2022-10-25T06:48:10.127Z,968.95
2022-10-25T06:49:08.113Z,968.94
2022-10-25T06:51:08.050Z,968.91
2022-10-25T06:52:08.104Z,968.96
2022-10-25T06:53:07.986Z,968.97
2022-10-25T06:54:08.002Z,968.97
2022-10-25T06:55:07.976Z,968.94
2022-10-25T06:56:09.380Z,968.97
2022-10-25T06:57:09.908Z,968.97
2022-10-25T06:58:07.888Z,968.93
2022-10-25T06:59:07.897Z,968.90
2022-10-25T07:00:07.842Z,968.97
2022-10-25T07:01:07.914Z,968.96
2022-10-25T07:02:08.880Z,969.02
2022-10-25T07:03:08.817Z,968.94
2022-10-25T07:04:07.797Z,968.95
2022-10-25T07:06:02.110Z,968.99
2022-10-25T07:06:07.716Z,969.04
2022-10-25T07:07:07.704Z,969.05
2022-10-25T07:08:07.680Z,968.98
2022-10-25T07:09:07.681Z,969.01
2022-10-25T07:10:07.650Z,969.04
2022-10-25T07:11:07.611Z,968.99
2022-10-25T07:12:12.214Z,969.05
2022-10-25T07:13:09.576Z,969.02
2022-10-25T07:14:07.612Z,969.05
2022-10-25T07:15:07.619Z,969.06
2022-10-25T07:16:07.510Z,969.09
2022-10-25T07:17:07.491Z,969.11
2022-10-25T07:18:07.478Z,969.14
2022-10-25T07:19:07.494Z,969.20
2022-10-25T07:20:07.504Z,969.23
2022-10-25T07:21:07.417Z,969.25
2022-10-25T07:22:07.403Z,969.29
2022-10-25T07:23:08.708Z,969.21
2022-10-25T07:24:08.398Z,969.19
2022-10-25T07:26:07.319Z,969.24
2022-10-25T07:27:07.288Z,969.20
2022-10-25T07:28:07.276Z,969.29
2022-10-25T07:29:07.279Z,969.23
2022-10-25T07:30:07.231Z,969.29
2022-10-25T07:31:07.232Z,969.27
2022-10-25T07:32:07.182Z,969.27
2022-10-25T07:33:07.183Z,969.33
2022-10-25T07:34:07.205Z,969.37
2022-10-25T07:35:07.123Z,969.37
2022-10-25T07:36:11.045Z,969.41
2022-10-25T07:37:08.109Z,969.37
2022-10-25T07:38:07.091Z,969.41
2022-10-25T07:39:07.064Z,969.48
2022-10-25T07:40:07.038Z,969.50
2022-10-25T07:41:07.000Z,969.49
2022-10-25T07:42:07.058Z,969.52
2022-10-25T07:43:06.966Z,969.50
2022-10-25T07:44:08.747Z,969.58
2022-10-25T07:45:06.950Z,969.57
2022-10-25T07:46:06.895Z,969.60
2022-10-25T07:47:06.884Z,969.56
2022-10-25T07:48:06.879Z,969.53
2022-10-25T07:49:06.861Z,969.52
2022-10-25T07:50:06.830Z,969.55
2022-10-25T07:51:06.784Z,969.61
2022-10-25T07:52:06.772Z,969.61
2022-10-25T07:53:06.742Z,969.62
2022-10-25T07:54:06.755Z,969.69
2022-10-25T07:55:06.719Z,969.66
2022-10-25T07:56:06.681Z,969.70
2022-10-25T07:57:06.663Z,969.67
2022-10-25T07:58:06.666Z,969.71
2022-10-25T07:59:06.665Z,969.72
2022-10-25T08:00:06.630Z,969.68
2022-10-25T08:01:06.662Z,969.68
2022-10-25T08:02:06.564Z,969.73
2022-10-25T08:03:06.588Z,969.76
2022-10-25T08:04:08.210Z,969.65
2022-10-25T08:05:06.496Z,969.66
2022-10-25T08:06:06.495Z,969.72
2022-10-25T08:07:06.466Z,969.63
2022-10-25T08:08:06.449Z,969.61
2022-10-25T08:09:14.483Z,969.59
2022-10-25T08:10:07.422Z,969.71
2022-10-25T08:11:06.427Z,969.57
2022-10-25T08:12:06.363Z,969.61
2022-10-25T08:13:06.322Z,969.48
2022-10-25T08:14:06.358Z,969.51
2022-10-25T08:15:06.303Z,969.56
2022-10-25T08:16:06.328Z,969.55
2022-10-25T08:17:06.260Z,969.53
2022-10-25T08:18:06.213Z,969.59
2022-10-25T08:19:06.255Z,969.59
2022-10-25T08:20:06.173Z,969.52
2022-10-25T08:21:06.153Z,969.48
2022-10-25T08:22:06.150Z,969.38
2022-10-25T08:23:06.107Z,969.32
2022-10-25T08:24:06.146Z,969.46
2022-10-25T08:25:06.144Z,969.48
2022-10-25T08:26:06.052Z,969.48
2022-10-25T08:27:06.010Z,969.57
2022-10-25T08:28:06.011Z,969.49
2022-10-25T08:29:06.013Z,969.56
2022-10-25T08:30:05.977Z,969.53
2022-10-25T08:31:05.953Z,969.52
2022-10-25T08:32:05.939Z,969.56
2022-10-25T08:33:10.528Z,969.52
2022-10-25T08:34:07.935Z,969.57
2022-10-25T08:35:05.848Z,969.57
2022-10-25T08:36:05.860Z,969.70
2022-10-25T08:37:05.815Z,969.73
2022-10-25T08:38:05.788Z,969.56
2022-10-25T08:39:05.834Z,969.60
2022-10-25T08:40:05.750Z,969.61
2022-10-25T08:41:05.725Z,969.53
2022-10-25T08:42:05.728Z,969.63
2022-10-25T08:43:05.683Z,969.60
2022-10-25T08:44:05.779Z,969.61
2022-10-25T08:45:05.686Z,969.59
2022-10-25T08:46:05.640Z,969.48
2022-10-25T08:47:05.615Z,969.54
2022-10-25T08:48:05.593Z,969.45
2022-10-25T08:49:05.627Z,969.43
2022-10-25T08:50:05.557Z,969.49
2022-10-25T08:51:05.543Z,969.44
2022-10-25T08:52:05.568Z,969.37
2022-10-25T08:53:05.498Z,969.51
2022-10-25T08:54:05.510Z,969.48
2022-10-25T08:55:06.032Z,969.48
2022-10-25T08:56:16.053Z,969.51
2022-10-25T08:57:15.887Z,969.51
2022-10-25T08:58:07.413Z,969.61
2022-10-25T08:59:05.438Z,969.53
2022-10-25T09:00:05.364Z,969.52
2022-10-25T09:01:05.468Z,969.64
2022-10-25T09:02:05.482Z,969.65
2022-10-25T09:03:05.318Z,969.63
2022-10-25T09:04:05.317Z,969.60
2022-10-25T09:05:05.274Z,969.71
2022-10-25T09:06:05.254Z,969.71
2022-10-25T09:07:05.262Z,969.80
2022-10-25T09:08:05.217Z,969.86
2022-10-25T09:09:05.255Z,969.79
2022-10-25T09:10:05.195Z,969.88
2022-10-25T09:11:05.163Z,969.84
2022-10-25T09:12:05.146Z,969.90
2022-10-25T09:13:10.549Z,969.87
2022-10-25T09:14:07.135Z,969.90
2022-10-25T09:15:05.106Z,969.87
2022-10-25T09:16:05.071Z,969.82
2022-10-25T09:17:05.112Z,969.87
2022-10-25T09:18:05.026Z,969.88
2022-10-25T09:19:05.063Z,969.90
2022-10-25T09:20:05.001Z,969.80
2022-10-25T09:21:06.081Z,969.92
2022-10-25T09:22:04.960Z,969.83
2022-10-25T09:23:04.972Z,969.71
2022-10-25T09:24:04.973Z,969.90
2022-10-25T09:25:04.894Z,969.87
2022-10-25T09:26:04.908Z,969.87
2022-10-25T09:27:04.859Z,969.87
2022-10-25T09:28:04.839Z,969.76
2022-10-25T09:29:04.843Z,969.81
2022-10-25T09:30:07.196Z,969.87
2022-10-25T09:31:04.778Z,969.88
2022-10-25T09:32:04.766Z,969.85
2022-10-25T09:33:04.815Z,969.95
2022-10-25T09:34:04.747Z,969.80
2022-10-25T09:35:04.700Z,969.76
2022-10-25T09:36:04.679Z,969.79
2022-10-25T09:37:04.665Z,969.73
2022-10-25T09:38:04.879Z,969.80
2022-10-25T09:39:04.684Z,969.76
2022-10-25T09:40:04.629Z,969.83
2022-10-25T09:41:04.597Z,969.80
2022-10-25T09:42:04.566Z,969.78
2022-10-25T09:44:04.562Z,969.85
2022-10-25T09:45:04.513Z,969.82
2022-10-25T09:46:04.493Z,969.87
2022-10-25T09:47:04.505Z,969.95
2022-10-25T09:48:04.456Z,969.93
2022-10-25T09:49:04.478Z,969.95
2022-10-25T09:50:04.415Z,969.96
2022-10-25T09:51:04.392Z,969.97
2022-10-25T09:52:04.414Z,969.91
2022-10-25T09:53:04.381Z,970.01
2022-10-25T09:54:04.368Z,970.06
2022-10-25T09:55:04.332Z,969.97
2022-10-25T09:56:04.292Z,970.01
2022-10-25T09:57:04.312Z,970.10
2022-10-25T09:58:04.268Z,970.10
2022-10-25T09:59:04.329Z,970.14
2022-10-25T10:00:04.231Z,970.06
2022-10-25T10:01:04.292Z,970.14
2022-10-25T10:02:04.283Z,970.16
2022-10-25T10:03:04.218Z,970.15
2022-10-25T10:04:04.180Z,970.23
2022-10-25T10:05:04.115Z,970.13
2022-10-25T10:06:04.142Z,970.20
2022-10-25T10:07:04.083Z,970.18
2022-10-25T10:08:04.067Z,970.17
2022-10-25T10:09:04.090Z,970.19
2022-10-25T10:10:04.023Z,970.20
2022-10-25T10:11:04.006Z,970.21
2022-10-25T10:12:03.995Z,970.23
2022-10-25T10:13:03.987Z,970.21
2022-10-25T10:14:06.233Z,970.22
2022-10-25T10:15:04.932Z,970.22
2022-10-25T10:16:03.914Z,970.23
2022-10-25T10:17:03.887Z,970.26
2022-10-25T10:18:03.891Z,970.28
2022-10-25T10:19:03.877Z,970.21
2022-10-25T10:20:04.846Z,970.26
2022-10-25T10:21:03.836Z,970.22
2022-10-25T10:22:03.799Z,970.32
2022-10-25T10:23:06.367Z,970.24
2022-10-25T10:24:03.802Z,970.29
2022-10-25T10:25:03.760Z,970.29
2022-10-25T10:26:03.723Z,970.27
2022-10-25T10:27:03.712Z,970.35
2022-10-25T10:28:03.681Z,970.29
2022-10-25T10:29:07.860Z,970.29
2022-10-25T10:30:05.642Z,970.30
2022-10-25T10:31:03.620Z,970.31
2022-10-25T10:32:03.615Z,970.28
2022-10-25T10:33:03.585Z,970.35
2022-10-25T10:34:03.608Z,970.31
2022-10-25T10:35:03.547Z,970.34
2022-10-25T10:36:03.573Z,970.32
2022-10-25T10:37:03.502Z,970.37
2022-10-25T10:38:03.501Z,970.39
2022-10-25T10:39:03.946Z,970.39
2022-10-25T10:40:03.454Z,970.46
2022-10-25T10:41:03.431Z,970.39
2022-10-25T10:42:03.525Z,970.47
2022-10-25T10:43:03.394Z,970.44
2022-10-25T10:44:03.421Z,970.42
2022-10-25T10:45:03.342Z,970.47
2022-10-25T10:46:03.327Z,970.50
2022-10-25T10:47:03.305Z,970.45
2022-10-25T10:48:03.286Z,970.52
2022-10-25T10:49:03.298Z,970.48
2022-10-25T10:50:03.235Z,970.50
2022-10-25T10:51:04.699Z,970.49
2022-10-25T10:52:03.193Z,970.47
2022-10-25T10:53:03.178Z,970.51
2022-10-25T10:54:03.191Z,970.41
2022-10-25T10:55:03.141Z,970.42
2022-10-25T10:56:03.135Z,970.38
2022-10-25T10:57:03.092Z,970.49
2022-10-25T10:58:03.074Z,970.50
2022-10-25T10:59:03.097Z,970.54
2022-10-25T11:00:03.042Z,970.43
2022-10-25T11:01:03.148Z,970.49
2022-10-25T11:02:03.077Z,970.50
2022-10-25T11:03:02.964Z,970.57
2022-10-25T11:04:02.968Z,970.51
2022-10-25T11:05:02.918Z,970.55
2022-10-25T11:06:02.919Z,970.62
2022-10-25T11:07:02.879Z,970.53
2022-10-25T11:08:02.880Z,970.59
2022-10-25T11:09:02.857Z,970.52
2022-10-25T11:10:02.832Z,970.54
2022-10-25T11:11:02.797Z,970.61
2022-10-25T11:12:02.784Z,970.62
2022-10-25T11:13:02.753Z,970.59
2022-10-25T11:14:02.768Z,970.65
2022-10-25T11:15:02.704Z,970.57
2022-10-25T11:16:02.687Z,970.56
2022-10-25T11:17:02.685Z,970.66
2022-10-25T11:18:02.652Z,970.63
2022-10-25T11:19:02.730Z,970.68
2022-10-25T11:20:02.611Z,970.68
2022-10-25T11:21:02.576Z,970.69
2022-10-25T11:22:02.582Z,970.69
2022-10-25T11:23:05.133Z,970.70
2022-10-25T11:24:03.557Z,970.75
2022-10-25T11:25:02.494Z,970.66
2022-10-25T11:26:02.470Z,970.72
2022-10-25T11:27:02.475Z,970.73
2022-10-25T11:28:02.437Z,970.73
2022-10-25T11:29:02.454Z,970.72
2022-10-25T11:30:02.402Z,970.67
2022-10-25T11:31:02.388Z,970.69
2022-10-25T11:32:02.344Z,970.69
2022-10-25T11:33:02.328Z,970.74
2022-10-25T11:34:03.251Z,970.65
2022-10-25T11:35:02.366Z,970.68
2022-10-25T11:36:02.278Z,970.72
2022-10-25T11:37:02.245Z,970.75
2022-10-25T11:38:02.219Z,970.73
2022-10-25T11:39:02.223Z,970.72
2022-10-25T11:40:02.187Z,970.80
2022-10-25T11:41:02.148Z,970.76
2022-10-25T11:42:02.156Z,970.77
2022-10-25T11:43:02.107Z,970.77
2022-10-25T11:44:02.141Z,970.78
2022-10-25T11:45:02.063Z,970.79
2022-10-25T11:46:02.093Z,970.81
2022-10-25T11:47:02.060Z,970.78
2022-10-25T11:48:02.013Z,970.73
2022-10-25T11:49:02.009Z,970.79
2022-10-25T11:50:01.972Z,970.73
2022-10-25T11:51:02.009Z,970.77
2022-10-25T11:52:02.005Z,970.76
2022-10-25T11:53:01.897Z,970.80
2022-10-25T11:54:01.937Z,970.70
2022-10-25T11:55:01.854Z,970.75
2022-10-25T11:56:01.854Z,970.74
2022-10-25T11:57:01.861Z,970.72
2022-10-25T11:58:05.628Z,970.74
2022-10-25T11:59:03.797Z,970.73
2022-10-25T12:00:01.745Z,970.73
2022-10-25T12:01:01.893Z,970.67
2022-10-25T12:02:01.745Z,970.70
2022-10-25T12:03:01.743Z,970.74
2022-10-25T12:04:01.662Z,970.72
2022-10-25T12:05:01.789Z,970.77
2022-10-25T12:06:01.625Z,970.76
2022-10-25T12:07:01.774Z,970.69
2022-10-25T12:08:01.610Z,970.64
2022-10-25T12:09:01.595Z,970.70
2022-10-25T12:10:01.570Z,970.73
2022-10-25T12:11:01.534Z,970.65
2022-10-25T12:12:01.515Z,970.69
2022-10-25T12:13:01.485Z,970.71
2022-10-25T12:14:01.479Z,970.77
2022-10-25T12:15:01.449Z,970.71
2022-10-25T12:16:01.405Z,970.76
2022-10-25T12:17:02.397Z,970.72
2022-10-25T12:18:01.380Z,970.78
2022-10-25T12:19:01.393Z,970.73
2022-10-25T12:20:01.340Z,970.71
2022-10-25T12:21:01.333Z,970.75
2022-10-25T12:22:02.154Z,970.72
2022-10-25T12:23:01.335Z,970.71
2022-10-25T12:24:01.271Z,970.70
2022-10-25T12:25:01.222Z,970.71
2022-10-25T12:26:01.197Z,970.68
2022-10-25T12:27:01.180Z,970.67
2022-10-25T12:28:04.521Z,970.64
2022-10-25T12:29:01.241Z,970.62
2022-10-25T12:30:01.115Z,970.63
2022-10-25T12:31:01.132Z,970.65
2022-10-25T12:32:01.082Z,970.59
2022-10-25T12:33:01.050Z,970.62
2022-10-25T12:34:01.075Z,970.63
2022-10-25T12:35:01.018Z,970.62